createdAt,value
2019-05-30T00:01:00.028Z,43.60
2019-05-30T00:03:29.493Z,43.50
2019-05-30T00:05:58.884Z,43.90
2019-05-30T00:08:28.253Z,43.80
2019-05-30T00:10:58.527Z,44.00
2019-05-30T00:13:27.915Z,44.20
2019-05-30T00:15:57.294Z,44.40
2019-05-30T00:18:27.992Z,44.40
2019-05-30T00:20:58.651Z,44.40
2019-05-30T00:23:28.362Z,44.50
2019-05-30T00:25:57.736Z,44.70
2019-05-30T00:28:27.120Z,44.80
2019-05-30T00:30:56.494Z,45.00
2019-05-30T00:33:25.863Z,45.00
2019-05-30T00:35:55.527Z,45.00
2019-05-30T00:38:24.912Z,45.20
2019-05-30T00:40:54.289Z,45.20
2019-05-30T00:43:24.209Z,45.40
2019-05-30T00:45:53.589Z,45.40
2019-05-30T00:48:23.284Z,45.60
2019-05-30T00:50:52.669Z,45.60
2019-05-30T00:53:22.041Z,45.80
2019-05-30T00:55:51.411Z,46.00
2019-05-30T00:58:20.798Z,45.90
2019-05-30T01:00:50.249Z,46.00
2019-05-30T01:03:19.622Z,46.00
2019-05-30T01:05:49.030Z,46.20
2019-05-30T01:08:18.394Z,46.40
2019-05-30T01:10:47.765Z,46.40
2019-05-30T01:13:18.671Z,46.60
2019-05-30T01:15:48.124Z,46.70
2019-05-30T01:18:17.485Z,46.80
2019-05-30T01:20:46.877Z,46.70
2019-05-30T01:23:16.256Z,46.80
2019-05-30T01:25:46.094Z,46.80
2019-05-30T01:28:15.932Z,46.90
2019-05-30T01:30:59.003Z,47.10
2019-05-30T01:33:16.494Z,47.00
2019-05-30T01:35:45.889Z,47.00
2019-05-30T01:38:15.257Z,47.00
2019-05-30T01:40:44.631Z,47.10
2019-05-30T01:43:14.014Z,47.10
2019-05-30T01:45:43.416Z,47.50
2019-05-30T01:48:12.797Z,47.70
2019-05-30T01:50:42.711Z,47.70
2019-05-30T01:53:12.092Z,47.80
2019-05-30T01:55:41.468Z,47.80
2019-05-30T01:58:10.861Z,48.00
2019-05-30T02:00:41.545Z,48.00
2019-05-30T02:03:10.976Z,48.00
2019-05-30T02:05:40.444Z,48.20
2019-05-30T02:08:10.281Z,48.30
2019-05-30T02:10:41.847Z,48.40
2019-05-30T02:13:11.424Z,49.50
2019-05-30T02:15:40.808Z,48.50
2019-05-30T02:18:10.270Z,48.60
2019-05-30T02:20:39.695Z,48.50
2019-05-30T02:23:09.960Z,48.70
2019-05-30T02:25:41.287Z,48.90
2019-05-30T02:28:11.598Z,48.40
2019-05-30T02:30:41.023Z,49.00
2019-05-30T02:33:12.688Z,49.00
2019-05-30T02:35:42.417Z,49.10
2019-05-30T02:38:12.152Z,49.20
2019-05-30T02:40:41.616Z,49.20
2019-05-30T02:43:12.222Z,49.20
2019-05-30T02:45:42.056Z,49.30
2019-05-30T02:48:12.235Z,49.30
2019-05-30T02:50:42.348Z,49.60
2019-05-30T02:53:13.083Z,49.60
2019-05-30T02:55:43.461Z,49.70
2019-05-30T02:58:14.512Z,49.50
2019-05-30T03:00:43.972Z,50.80
2019-05-30T03:03:14.725Z,49.60
2019-05-30T03:05:44.457Z,49.70
2019-05-30T03:08:14.590Z,49.50
2019-05-30T03:10:44.259Z,49.90
2019-05-30T03:13:13.723Z,50.00
2019-05-30T03:15:43.151Z,50.10
2019-05-30T03:18:14.623Z,49.90
2019-05-30T03:20:44.636Z,50.10
2019-05-30T03:23:14.752Z,50.00
2019-05-30T03:25:44.589Z,50.20
2019-05-30T03:28:14.056Z,48.90
2019-05-30T03:30:46.512Z,50.10
2019-05-30T03:33:36.704Z,50.30
2019-05-30T03:35:47.800Z,50.40
2019-05-30T03:38:17.193Z,50.40
2019-05-30T03:40:47.005Z,50.50
2019-05-30T03:43:16.394Z,50.60
2019-05-30T03:45:45.984Z,50.50
2019-05-30T03:48:20.577Z,50.50
2019-05-30T03:50:54.147Z,51.90
2019-05-30T03:53:24.138Z,50.60
2019-05-30T03:56:01.051Z,50.50
2019-05-30T03:58:46.843Z,50.60
2019-05-30T04:01:32.976Z,50.60
2019-05-30T04:04:19.240Z,50.80
2019-05-30T04:06:53.891Z,50.90
2019-05-30T04:09:26.799Z,50.90
2019-05-30T04:12:38.970Z,51.00
2019-05-30T04:15:25.492Z,50.90
2019-05-30T04:17:55.130Z,50.90
2019-05-30T04:20:24.780Z,50.80
2019-05-30T04:22:54.169Z,50.80
2019-05-30T04:25:24.536Z,51.00
2019-05-30T04:27:53.912Z,50.20
2019-05-30T04:30:23.879Z,50.70
2019-05-30T04:32:53.608Z,50.60
2019-05-30T04:35:23.348Z,50.70
2019-05-30T04:37:52.726Z,51.20
2019-05-30T04:40:22.175Z,50.60
2019-05-30T04:42:51.554Z,50.50
2019-05-30T04:45:21.385Z,50.40
2019-05-30T04:47:51.013Z,50.40
2019-05-30T04:50:20.824Z,50.20
2019-05-30T04:52:50.678Z,50.10
2019-05-30T04:55:23.042Z,50.00
2019-05-30T04:57:51.973Z,49.90
2019-05-30T05:00:21.776Z,49.90
2019-05-30T05:02:51.153Z,49.70
2019-05-30T05:05:26.567Z,49.90
2019-05-30T05:07:51.652Z,49.60
2019-05-30T05:10:22.586Z,49.20
2019-05-30T05:12:52.231Z,49.80
2019-05-30T05:15:22.824Z,49.50
2019-05-30T05:17:52.402Z,49.70
2019-05-30T05:20:23.365Z,48.70
2019-05-30T05:22:53.262Z,47.50
2019-05-30T05:25:23.588Z,47.50
2019-05-30T05:27:53.267Z,47.60
2019-05-30T05:30:24.300Z,46.40
2019-05-30T05:32:54.078Z,45.80
2019-05-30T05:35:24.932Z,45.40
2019-05-30T05:37:54.434Z,44.90
2019-05-30T05:40:24.432Z,44.40
2019-05-30T05:42:53.839Z,43.90
2019-05-30T05:45:24.619Z,43.50
2019-05-30T05:47:54.096Z,43.20
2019-05-30T05:50:24.598Z,42.80
2019-05-30T05:52:54.008Z,42.40
2019-05-30T05:55:23.385Z,42.20
2019-05-30T05:57:52.785Z,41.90
2019-05-30T06:00:23.280Z,41.70
2019-05-30T06:02:53.086Z,41.70
2019-05-30T06:05:22.453Z,42.00
2019-05-30T06:07:51.943Z,41.60
2019-05-30T06:10:21.897Z,41.40
2019-05-30T06:12:51.584Z,41.20
2019-05-30T06:15:20.956Z,41.10
2019-05-30T06:17:50.502Z,40.90
2019-05-30T06:20:21.259Z,40.80
2019-05-30T06:22:50.781Z,40.90
2019-05-30T06:25:22.304Z,41.00
2019-05-30T06:27:51.350Z,41.00
2019-05-30T06:30:22.394Z,41.00
2019-05-30T06:32:51.801Z,41.00
2019-05-30T06:35:21.374Z,41.10
2019-05-30T06:37:51.683Z,41.00
2019-05-30T06:40:21.647Z,40.90
2019-05-30T06:42:51.013Z,41.10
2019-05-30T06:45:21.860Z,40.90
2019-05-30T06:47:52.039Z,40.80
2019-05-30T06:50:22.544Z,40.70
2019-05-30T06:52:51.930Z,40.60
2019-05-30T06:55:21.318Z,40.70
2019-05-30T06:57:50.690Z,40.30
2019-05-30T07:00:21.686Z,39.80
2019-05-30T07:02:51.679Z,39.80
2019-05-30T07:05:22.917Z,39.50
2019-05-30T07:07:52.311Z,39.40
2019-05-30T07:10:22.818Z,39.40
2019-05-30T07:12:52.156Z,39.80
2019-05-30T07:15:23.010Z,39.30
2019-05-30T07:17:53.040Z,39.70
2019-05-30T07:20:25.508Z,39.40
2019-05-30T07:22:55.152Z,39.10
2019-05-30T07:25:25.707Z,38.90
2019-05-30T07:30:32.038Z,38.40
2019-05-30T07:33:01.459Z,38.00
2019-05-30T07:35:31.864Z,37.60
2019-05-30T07:38:01.787Z,37.50
2019-05-30T07:40:32.641Z,37.50
2019-05-30T07:43:02.177Z,37.40
2019-05-30T07:45:31.561Z,37.20
2019-05-30T07:48:00.935Z,37.50
2019-05-30T07:50:30.512Z,36.80
2019-05-30T07:52:59.979Z,36.50
2019-05-30T07:55:30.990Z,37.00
2019-05-30T07:58:00.462Z,37.20
2019-05-30T08:00:29.864Z,35.90
2019-05-30T08:02:59.990Z,36.10
2019-05-30T08:05:30.526Z,36.20
2019-05-30T08:08:00.152Z,36.00
2019-05-30T08:10:29.895Z,35.70
2019-05-30T08:12:59.446Z,35.40
2019-05-30T08:15:29.238Z,35.30
2019-05-30T08:17:58.640Z,35.20
2019-05-30T08:20:28.063Z,35.80
2019-05-30T08:22:57.627Z,35.40
2019-05-30T08:25:27.970Z,34.90
2019-05-30T08:27:57.484Z,34.70
2019-05-30T08:30:28.295Z,34.90
2019-05-30T08:32:57.846Z,35.00
2019-05-30T08:35:39.114Z,35.10
2019-05-30T08:37:58.389Z,35.10
2019-05-30T08:40:29.040Z,34.80
2019-05-30T08:42:59.900Z,34.80
2019-05-30T08:45:29.619Z,34.70
2019-05-30T08:47:59.057Z,34.60
2019-05-30T08:50:28.400Z,34.50
2019-05-30T08:52:58.098Z,34.40
2019-05-30T08:55:27.490Z,34.50
2019-05-30T08:57:56.921Z,34.70
2019-05-30T09:00:28.246Z,34.40
2019-05-30T09:02:57.618Z,34.00
2019-05-30T09:05:26.998Z,33.80
2019-05-30T09:07:56.430Z,34.10
2019-05-30T09:10:26.431Z,33.70
2019-05-30T09:12:55.851Z,33.60
2019-05-30T09:15:26.142Z,33.40
2019-05-30T09:17:55.525Z,33.30
2019-05-30T09:20:25.169Z,33.30
2019-05-30T09:22:55.497Z,33.20
2019-05-30T09:25:24.910Z,33.40
2019-05-30T09:27:54.332Z,33.20
2019-05-30T09:30:23.958Z,33.00
2019-05-30T09:32:53.302Z,33.00
2019-05-30T09:35:22.862Z,32.90
2019-05-30T09:37:52.228Z,32.80
2019-05-30T09:40:23.832Z,33.00
2019-05-30T09:42:53.198Z,32.90
2019-05-30T09:45:24.610Z,32.80
2019-05-30T09:47:54.327Z,33.10
2019-05-30T09:50:24.365Z,32.80
2019-05-30T09:52:53.764Z,32.80
2019-05-30T09:55:25.158Z,32.40
2019-05-30T09:57:54.536Z,32.80
2019-05-30T10:00:26.020Z,32.50
2019-05-30T10:02:55.539Z,32.20
2019-05-30T10:05:25.426Z,31.80
2019-05-30T10:07:54.773Z,31.50
2019-05-30T10:10:25.698Z,30.70
2019-05-30T10:12:55.061Z,30.90
2019-05-30T10:15:24.758Z,31.00
2019-05-30T10:17:54.681Z,31.10
2019-05-30T10:20:25.003Z,31.10
2019-05-30T10:22:54.652Z,31.40
2019-05-30T10:25:24.188Z,31.10
2019-05-30T10:27:54.712Z,31.10
2019-05-30T10:30:25.669Z,31.30
2019-05-30T10:32:55.930Z,31.20
2019-05-30T10:35:25.482Z,31.20
2019-05-30T10:37:54.875Z,31.10
2019-05-30T10:40:24.440Z,31.10
2019-05-30T10:42:55.136Z,30.90
2019-05-30T10:45:25.249Z,30.80
2019-05-30T10:47:55.824Z,30.80
2019-05-30T10:50:25.411Z,30.60
2019-05-30T10:52:55.606Z,30.70
2019-05-30T10:55:26.769Z,30.70
2019-05-30T10:57:59.129Z,30.30
2019-05-30T11:00:53.798Z,30.70
2019-05-30T11:03:27.242Z,30.00
2019-05-30T11:06:01.213Z,30.00
2019-05-30T11:08:33.203Z,30.00
2019-05-30T11:11:02.582Z,30.00
2019-05-30T11:13:32.024Z,29.90
2019-05-30T11:16:01.341Z,29.60
2019-05-30T11:18:30.710Z,29.30
2019-05-30T11:21:00.260Z,29.00
2019-05-30T11:23:29.635Z,29.40
2019-05-30T11:25:59.010Z,29.20
2019-05-30T11:28:28.532Z,29.30
2019-05-30T11:30:58.926Z,29.40
2019-05-30T11:33:28.266Z,29.20
2019-05-30T11:35:57.668Z,29.10
2019-05-30T11:38:27.035Z,29.00
2019-05-30T11:40:57.578Z,28.80
2019-05-30T11:43:27.459Z,28.90
2019-05-30T11:45:57.747Z,28.90
2019-05-30T11:48:27.216Z,28.70
2019-05-30T11:50:57.974Z,29.00
2019-05-30T11:53:27.505Z,29.10
2019-05-30T11:55:58.218Z,29.00
2019-05-30T11:58:27.707Z,29.50
2019-05-30T12:00:58.423Z,29.00
2019-05-30T12:03:29.662Z,29.00
2019-05-30T12:05:59.361Z,28.80
2019-05-30T12:08:28.783Z,28.80
2019-05-30T12:10:59.374Z,28.60
2019-05-30T12:13:29.005Z,28.70
2019-05-30T12:15:59.643Z,28.80
2019-05-30T12:18:29.232Z,28.90
2019-05-30T12:20:59.807Z,28.90
2019-05-30T12:23:29.294Z,28.90
2019-05-30T12:25:58.671Z,28.90
2019-05-30T12:28:28.091Z,29.30
2019-05-30T12:31:01.736Z,28.90
2019-05-30T12:33:28.620Z,28.70
2019-05-30T12:35:58.544Z,28.90
2019-05-30T12:38:28.267Z,28.80
2019-05-30T12:40:58.721Z,28.70
2019-05-30T12:43:28.277Z,28.80
2019-05-30T12:45:57.641Z,28.80
2019-05-30T12:48:27.014Z,28.70
2019-05-30T12:50:57.227Z,28.70
2019-05-30T12:53:27.502Z,28.70
2019-05-30T12:55:57.072Z,28.40
2019-05-30T12:58:26.452Z,28.20
2019-05-30T13:00:56.647Z,28.40
2019-05-30T13:03:26.085Z,28.40
2019-05-30T13:05:56.841Z,28.60
2019-05-30T13:08:26.450Z,28.60
2019-05-30T13:10:55.861Z,28.40
2019-05-30T13:13:27.034Z,28.40
2019-05-30T13:15:56.613Z,28.30
2019-05-30T13:18:26.320Z,28.30
2019-05-30T13:20:56.007Z,28.10
2019-05-30T13:23:25.550Z,28.10
2019-05-30T13:25:55.481Z,28.40
2019-05-30T13:28:24.906Z,28.40
2019-05-30T13:30:54.289Z,28.30
2019-05-30T13:33:23.678Z,28.50
2019-05-30T13:35:53.501Z,28.50
2019-05-30T13:38:26.601Z,28.40
2019-05-30T13:40:54.011Z,28.40
2019-05-30T13:43:23.743Z,28.50
2019-05-30T13:45:53.431Z,28.30
2019-05-30T13:48:22.893Z,28.20
2019-05-30T13:50:52.312Z,28.20
2019-05-30T13:53:21.762Z,28.40
2019-05-30T13:55:52.602Z,28.20
2019-05-30T13:58:22.011Z,28.30
2019-05-30T14:00:51.517Z,28.20
2019-05-30T14:03:20.839Z,28.00
2019-05-30T14:05:50.251Z,28.20
2019-05-30T14:08:19.634Z,28.00
2019-05-30T14:10:49.059Z,27.90
2019-05-30T14:13:18.452Z,27.80
2019-05-30T14:15:47.831Z,28.10
2019-05-30T14:18:17.277Z,28.10
2019-05-30T14:20:46.690Z,28.30
2019-05-30T14:23:16.058Z,28.40
2019-05-30T14:25:46.968Z,28.30
2019-05-30T14:28:16.456Z,28.90
2019-05-30T14:30:45.994Z,27.90
2019-05-30T14:33:15.363Z,27.90
2019-05-30T14:35:44.784Z,27.80
2019-05-30T14:38:14.195Z,27.90
2019-05-30T14:40:43.587Z,28.00
2019-05-30T14:43:13.618Z,27.90
2019-05-30T14:45:43.114Z,27.80
2019-05-30T14:48:12.646Z,27.50
2019-05-30T14:50:41.970Z,27.40
2019-05-30T14:53:11.343Z,27.30
2019-05-30T14:55:40.717Z,27.40
2019-05-30T14:58:11.284Z,27.10
2019-05-30T15:00:41.901Z,27.30
2019-05-30T15:03:15.481Z,27.50
2019-05-30T15:05:43.081Z,27.60
2019-05-30T15:08:12.561Z,27.50
2019-05-30T15:10:41.946Z,27.30
2019-05-30T15:13:11.682Z,27.60
2019-05-30T15:15:41.066Z,27.90
2019-05-30T15:18:11.408Z,27.40
2019-05-30T15:20:40.737Z,27.20
2019-05-30T15:23:10.191Z,27.30
2019-05-30T15:25:39.698Z,27.30
2019-05-30T15:28:09.978Z,27.50
2019-05-30T15:30:39.476Z,27.50
2019-05-30T15:33:08.854Z,27.30
2019-05-30T15:35:38.322Z,27.40
2019-05-30T15:38:08.712Z,27.60
2019-05-30T15:40:41.924Z,27.60
2019-05-30T15:43:11.482Z,28.40
2019-05-30T15:45:40.871Z,27.50
2019-05-30T15:48:10.394Z,27.60
2019-05-30T15:50:39.786Z,27.60
2019-05-30T15:53:09.192Z,27.60
2019-05-30T15:55:38.593Z,27.80
2019-05-30T15:58:09.364Z,27.90
2019-05-30T16:00:39.752Z,28.20
2019-05-30T16:03:10.468Z,28.30
2019-05-30T16:05:40.100Z,28.50
2019-05-30T16:08:10.613Z,28.50
2019-05-30T16:10:40.181Z,28.50
2019-05-30T16:13:11.344Z,28.50
2019-05-30T16:15:44.210Z,28.70
2019-05-30T16:18:13.603Z,28.70
2019-05-30T16:20:43.305Z,28.70
2019-05-30T16:23:12.779Z,28.90
2019-05-30T16:25:42.147Z,28.80
2019-05-30T16:28:11.562Z,28.90
2019-05-30T16:30:40.934Z,29.00
2019-05-30T16:33:10.332Z,29.10
2019-05-30T16:35:39.724Z,29.20
2019-05-30T16:38:09.093Z,29.90
2019-05-30T16:40:38.738Z,30.00
2019-05-30T16:43:08.526Z,29.90
2019-05-30T16:45:38.039Z,30.00
2019-05-30T16:48:07.441Z,29.90
2019-05-30T16:50:36.802Z,29.90
2019-05-30T16:53:06.215Z,29.90
2019-05-30T16:55:35.958Z,29.90
2019-05-30T16:58:05.910Z,29.90
2019-05-30T17:00:35.360Z,30.00
2019-05-30T17:03:06.259Z,30.00
2019-05-30T17:05:35.771Z,31.20
2019-05-30T17:08:05.228Z,30.20
2019-05-30T17:10:34.688Z,30.10
2019-05-30T17:13:04.062Z,30.20
2019-05-30T17:15:33.482Z,30.50
2019-05-30T17:18:02.872Z,31.10
2019-05-30T17:20:32.277Z,30.60
2019-05-30T17:23:01.651Z,30.60
2019-05-30T17:25:31.081Z,30.70
2019-05-30T17:28:00.684Z,30.90
2019-05-30T17:30:30.354Z,31.80
2019-05-30T17:32:59.747Z,32.90
2019-05-30T17:35:29.142Z,33.30
2019-05-30T17:37:58.769Z,33.90
2019-05-30T17:40:41.099Z,34.70
2019-05-30T17:42:59.371Z,35.10
2019-05-30T17:45:29.471Z,35.40
2019-05-30T17:48:15.328Z,35.70
2019-05-30T17:50:31.326Z,36.10
2019-05-30T17:53:00.692Z,36.30
2019-05-30T17:55:30.182Z,36.50
2019-05-30T17:57:59.546Z,36.80
2019-05-30T18:00:29.022Z,37.00
2019-05-30T18:02:58.419Z,37.10
2019-05-30T18:05:28.910Z,37.50
2019-05-30T18:07:58.298Z,37.50
2019-05-30T18:10:28.946Z,38.10
2019-05-30T18:12:58.834Z,37.90
2019-05-30T18:15:30.413Z,38.10
2019-05-30T18:18:00.115Z,38.40
2019-05-30T18:20:29.503Z,38.60
2019-05-30T18:22:58.867Z,38.70
2019-05-30T18:25:28.244Z,39.10
2019-05-30T18:27:57.680Z,39.00
2019-05-30T18:30:43.592Z,39.30
2019-05-30T18:33:13.417Z,39.50
2019-05-30T18:35:43.050Z,39.80
2019-05-30T18:38:12.407Z,39.90
2019-05-30T18:40:42.167Z,40.10
2019-05-30T18:43:11.566Z,40.20
2019-05-30T18:45:44.936Z,40.70
2019-05-30T18:48:14.339Z,40.80
2019-05-30T18:50:43.730Z,40.80
2019-05-30T18:53:13.095Z,41.20
2019-05-30T18:55:42.491Z,41.30
2019-05-30T18:58:11.862Z,41.20
2019-05-30T19:00:41.318Z,41.40
2019-05-30T19:03:10.705Z,42.30
2019-05-30T19:05:40.081Z,41.70
2019-05-30T19:08:09.935Z,42.10
2019-05-30T19:10:39.350Z,42.10
2019-05-30T19:13:08.760Z,42.10
2019-05-30T19:15:38.138Z,42.20
2019-05-30T19:18:09.255Z,42.40
2019-05-30T19:20:38.937Z,42.10
2019-05-30T19:23:08.307Z,42.30
2019-05-30T19:25:37.921Z,42.50
2019-05-30T19:28:07.262Z,42.00
2019-05-30T19:30:36.976Z,42.70
2019-05-30T19:33:06.427Z,42.80
2019-05-30T19:35:37.139Z,42.80
2019-05-30T19:38:06.852Z,42.90
2019-05-30T19:40:36.250Z,43.10
2019-05-30T19:43:05.715Z,43.20
2019-05-30T19:45:36.108Z,43.10
2019-05-30T19:48:05.850Z,43.10
2019-05-30T19:50:35.302Z,43.30
2019-05-30T19:53:04.708Z,43.40
2019-05-30T19:55:35.264Z,43.30
2019-05-30T19:58:04.728Z,43.40
2019-05-30T20:00:50.258Z,43.60
2019-05-30T20:03:05.871Z,43.70
2019-05-30T20:05:36.558Z,43.70
2019-05-30T20:08:06.201Z,43.70
2019-05-30T20:10:37.256Z,43.80
2019-05-30T20:13:06.908Z,43.80
2019-05-30T20:15:37.724Z,44.00
2019-05-30T20:18:07.277Z,44.00
2019-05-30T20:20:51.681Z,44.20
2019-05-30T20:23:07.753Z,44.10
2019-05-30T20:25:40.765Z,44.40
2019-05-30T20:28:08.351Z,45.10
2019-05-30T20:30:38.811Z,44.80
2019-05-30T20:33:08.483Z,44.60
2019-05-30T20:35:39.007Z,44.80
2019-05-30T20:38:09.278Z,45.20
2019-05-30T20:40:39.077Z,45.20
2019-05-30T20:43:08.464Z,45.20
2019-05-30T20:45:42.016Z,45.20
2019-05-30T20:48:09.021Z,45.50
2019-05-30T20:50:39.058Z,45.60
2019-05-30T20:53:08.517Z,45.70
2019-05-30T20:55:38.350Z,45.80
2019-05-30T20:58:07.750Z,45.80
2019-05-30T21:00:40.306Z,46.10
2019-05-30T21:03:10.110Z,46.30
2019-05-30T21:05:42.004Z,46.20
2019-05-30T21:08:12.542Z,46.20
2019-05-30T21:10:43.820Z,46.20
2019-05-30T21:13:14.209Z,46.40
2019-05-30T21:15:46.784Z,47.00
2019-05-30T21:18:18.885Z,46.40
2019-05-30T21:20:48.338Z,46.60
2019-05-30T21:23:17.690Z,46.80
2019-05-30T21:25:47.318Z,46.90
2019-05-30T21:28:16.922Z,47.00
2019-05-30T21:30:47.488Z,47.10
2019-05-30T21:33:17.203Z,47.20
2019-05-30T21:35:48.072Z,47.10
2019-05-30T21:38:17.780Z,47.10
2019-05-30T21:40:48.376Z,47.30
2019-05-30T21:43:18.145Z,47.30
2019-05-30T21:45:49.024Z,47.40
2019-05-30T21:48:18.416Z,47.40
2019-05-30T21:50:49.141Z,47.50
2019-05-30T21:53:18.902Z,47.50
2019-05-30T21:55:48.585Z,47.70
2019-05-30T21:58:17.959Z,47.70
2019-05-30T22:01:18.969Z,47.70
2019-05-30T22:03:51.076Z,47.80
2019-05-30T22:06:20.652Z,47.80
2019-05-30T22:08:51.434Z,47.80
2019-05-30T22:11:21.622Z,47.80
2019-05-30T22:13:52.016Z,48.00
2019-05-30T22:16:22.034Z,48.20
2019-05-30T22:18:52.250Z,48.20
2019-05-30T22:21:21.691Z,48.20
2019-05-30T22:23:52.392Z,48.10
2019-05-30T22:26:22.120Z,48.30
2019-05-30T22:28:52.693Z,48.30
2019-05-30T22:31:22.266Z,48.40
2019-05-30T22:33:52.861Z,48.40
2019-05-30T22:36:22.593Z,48.40
2019-05-30T22:38:53.215Z,48.40
2019-05-30T22:41:22.858Z,48.70
2019-05-30T22:43:52.927Z,48.60
2019-05-30T22:46:22.680Z,48.70
2019-05-30T22:48:52.964Z,48.60
2019-05-30T22:51:22.698Z,48.70
2019-05-30T22:53:53.214Z,48.70
2019-05-30T22:56:22.921Z,48.90
2019-05-30T22:58:52.297Z,48.90
2019-05-30T23:01:21.706Z,48.90
2019-05-30T23:03:52.247Z,49.00
2019-05-30T23:06:21.978Z,49.00
2019-05-30T23:08:52.509Z,49.10
2019-05-30T23:11:22.118Z,49.20
2019-05-30T23:13:51.967Z,49.20
2019-05-30T23:16:21.339Z,49.30
2019-05-30T23:18:50.824Z,49.50
2019-05-30T23:21:20.195Z,49.60
2019-05-30T23:23:49.599Z,49.50
2019-05-30T23:26:18.978Z,49.60
2019-05-30T23:28:49.649Z,49.70
2019-05-30T23:31:19.321Z,49.80
2019-05-30T23:33:48.696Z,49.80
2019-05-30T23:36:18.073Z,50.10
2019-05-30T23:38:48.571Z,50.20
2019-05-30T23:41:17.994Z,50.20
2019-05-30T23:43:55.935Z,50.30
2019-05-30T23:46:19.206Z,50.40
2019-05-30T23:48:49.504Z,50.50
2019-05-30T23:51:18.923Z,50.60
2019-05-30T23:53:48.316Z,50.80
2019-05-30T23:56:17.695Z,51.10
2019-05-30T23:58:47.069Z,51.20
